Time;durP1;ratioP1;P1;durP2;ratioP2;P2;SDS_P1;SDS_P2;PMS_P1;PMS_P2;Temp;Humidity;BMP_temperature;BMP_pressure;BME280_temperature;BME280_humidity;BME280_pressure;Samples;Min_cycle;Max_cycle;Signal;HPM_P1;HPM_P2
2023/03/17 11:36:04;;;;;;;4.60;3.30;;;;;;;3.75;100.00;101264.48;103274;1296;600408;-87
2023/03/17 11:39:06;;;;;;;6.40;3.40;;;;;;;3.86;100.00;101268.20;105702;1270;61072;-86
2023/03/17 11:42:08;;;;;;;4.20;2.50;;;;;;;4.01;100.00;101272.50;105308;1266;60377;-87
2023/03/17 11:45:04;;;;;;;5.70;2.80;;;;;;;4.14;100.00;101273.76;105592;1266;72455;-88
2023/03/17 11:48:16;;;;;;;7.80;3.40;;;;;;;4.30;100.00;101272.46;105465;1272;68172;-88
2023/03/17 11:51:17;;;;;;;9.70;3.80;;;;;;;4.43;100.00;101276.87;105529;1263;71927;-87
2023/03/17 11:54:40;;;;;;;8.00;3.70;;;;;;;4.48;100.00;101283.84;105624;1264;61492;-87
2023/03/17 11:57:47;;;;;;;9.50;4.90;;;;;;;4.54;100.00;101286.16;105633;1269;59373;-87
2023/03/17 12:00:45;;;;;;;7.60;3.20;;;;;;;4.62;100.00;101286.60;105781;1264;73250;-87
2023/03/17 12:03:38;;;;;;;5.10;3.10;;;;;;;4.65;100.00;101288.04;105555;1263;67776;-87
2023/03/17 12:06:29;;;;;;;;;;;;;;;4.66;100.00;101285.33;105713;1264;73597;-87
2023/03/17 12:09:41;;;;;;;8.20;3.30;;;;;;;4.69;100.00;101288.55;105784;1265;62075;-88
2023/03/17 12:12:37;;;;;;;7.70;3.30;;;;;;;4.78;100.00;101288.06;105687;1265;60313;-87
2023/03/17 12:15:42;;;;;;;4.20;3.00;;;;;;;4.90;100.00;101288.18;105728;1264;73152;-87
2023/03/17 12:18:33;;;;;;;6.10;2.30;;;;;;;4.79;100.00;101288.23;105904;1263;69302;-87
2023/03/17 12:21:36;;;;;;;6.80;2.80;;;;;;;4.74;100.00;101287.42;105740;1264;73149;-86
2023/03/17 12:24:44;;;;;;;6.60;3.70;;;;;;;4.75;100.00;101291.46;105664;1264;61908;-87
2023/03/17 12:27:40;;;;;;;8.40;3.90;;;;;;;4.71;100.00;101293.17;105516;1267;59810;-86
2023/03/17 12:30:37;;;;;;;5.10;3.10;;;;;;;4.70;100.00;101299.92;105992;1264;74248;-86
2023/03/17 12:33:27;;;;;;;8.90;3.20;;;;;;;4.81;100.00;101303.30;105723;1266;68664;-87
2023/03/17 12:36:17;;;;;;;4.70;3.10;;;;;;;4.76;100.00;101305.54;105778;1266;72593;-87
2023/03/17 12:39:13;;;;;;;5.70;2.70;;;;;;;4.81;100.00;101309.20;105515;1267;60646;-87
2023/03/17 12:42:17;;;;;;;5.40;3.60;;;;;;;4.85;100.00;101310.23;105601;1264;60358;-87
2023/03/17 12:45:14;;;;;;;3.80;2.60;;;;;;;4.80;100.00;101312.42;105550;1266;75179;-87
2023/03/17 12:48:18;;;;;;;4.40;2.80;;;;;;;4.81;100.00;101316.63;105645;1269;68783;-87
2023/03/17 12:51:18;;;;;;;6.40;3.10;;;;;;;4.81;100.00;101320.37;105698;1266;72119;-87
2023/03/17 12:54:32;;;;;;;6.40;2.90;;;;;;;4.80;100.00;101321.52;105564;1267;60282;-85
2023/03/17 12:57:28;;;;;;;3.80;2.50;;;;;;;4.80;100.00;101328.29;105415;1269;59618;-87
2023/03/17 13:00:23;;;;;;;5.10;2.70;;;;;;;4.79;100.00;101328.25;105745;1268;73643;-88
2023/03/17 13:03:22;;;;;;;4.00;2.90;;;;;;;4.76;100.00;101330.48;105640;1265;70081;-88
2023/03/17 13:06:15;;;;;;;5.00;2.90;;;;;;;4.70;100.00;101329.99;105315;1267;73978;-85
2023/03/17 13:09:27;;;;;;;3.90;2.80;;;;;;;4.70;100.00;101333.91;105641;1265;60736;-87
2023/03/17 13:12:38;;;;;;;4.80;3.10;;;;;;;4.66;100.00;101338.27;105542;1266;61040;-87
2023/03/17 13:15:34;;;;;;;6.10;2.90;;;;;;;4.79;100.00;101332.77;106260;1259;73527;-85
2023/03/17 13:18:30;;;;;;;6.10;3.20;;;;;;;4.86;100.00;101336.88;106364;1259;68780;-85
2023/03/17 13:21:22;;;;;;;4.60;3.10;;;;;;;4.69;100.00;101334.50;106383;1254;73720;-85
2023/03/17 13:24:15;;;;;;;6.70;3.30;;;;;;;4.70;100.00;101338.57;106345;1254;61529;-85
2023/03/17 13:27:09;;;;;;;5.60;3.20;;;;;;;4.72;100.00;101341.90;106097;1254;59586;-86
2023/03/17 13:30:20;;;;;;;6.20;3.70;;;;;;;4.72;100.00;101349.48;106591;1254;72476;-87
2023/03/17 13:33:22;;;;;;;6.40;3.00;;;;;;;4.70;100.00;101351.79;106286;1254;70036;-85
2023/03/17 13:36:36;;;;;;;3.80;3.00;;;;;;;4.68;100.00;101350.54;106215;1254;75543;-86
2023/03/17 13:39:49;;;;;;;5.40;3.30;;;;;;;4.71;100.00;101359.89;106449;1257;60347;-87
2023/03/17 13:43:02;;;;;;;5.00;3.00;;;;;;;4.80;100.00;101355.75;106712;1254;62154;-86
2023/03/17 13:45:51;;;;;;;6.30;3.40;;;;;;;4.96;100.00;101356.55;106249;1254;73012;-85
2023/03/17 13:48:43;;;;;;;5.70;3.10;;;;;;;4.94;100.00;101360.73;106326;1257;69312;-85
2023/03/17 13:51:34;;;;;;;6.90;3.80;;;;;;;4.94;100.00;101362.28;106359;1255;70622;-87
2023/03/17 13:54:26;;;;;;;6.60;4.30;;;;;;;4.99;100.00;101363.66;105961;1258;62353;-85
2023/03/17 13:57:36;;;;;;;7.00;4.20;;;;;;;5.00;100.00;101364.33;106310;1254;60431;-86
2023/03/17 14:00:26;;;;;;;8.50;5.60;;;;;;;5.12;100.00;101368.97;106198;1256;74284;-87
2023/03/17 14:03:19;;;;;;;12.20;5.10;;;;;;;5.02;100.00;101366.80;105996;1260;70102;-86
2023/03/17 14:06:10;;;;;;;7.40;4.30;;;;;;;4.98;100.00;101364.53;106139;1254;73977;-87
2023/03/17 14:09:04;;;;;;;17.00;8.00;;;;;;;5.00;100.00;101367.65;106338;1254;61525;-86
2023/03/17 14:11:56;;;;;;;13.60;5.60;;;;;;;5.08;100.00;101368.09;106195;1254;61363;-87
2023/03/17 14:15:03;;;;;;;12.90;4.90;;;;;;;5.06;100.00;101367.73;106363;1254;73084;-86
2023/03/17 14:18:07;;;;;;;7.60;3.60;;;;;;;5.15;100.00;101370.20;106268;1259;69184;-86
2023/03/17 14:21:00;;;;;;;6.70;4.30;;;;;;;5.26;100.00;101369.58;106025;1254;71881;-89
2023/03/17 14:23:56;;;;;;;6.70;3.80;;;;;;;5.30;100.00;101374.75;106254;1254;65051;-89
2023/03/17 14:26:47;;;;;;;8.00;3.90;;;;;;;5.25;100.00;101372.46;106211;1254;60293;-87
2023/03/17 14:29:38;;;;;;;5.90;3.60;;;;;;;5.33;100.00;101367.35;106131;1254;72174;-87
2023/03/17 14:32:27;;;;;;;7.60;3.90;;;;;;;5.32;100.00;101367.56;106107;1254;68943;-85
2023/03/17 14:35:16;;;;;;;7.80;4.30;;;;;;;5.53;100.00;101373.16;106100;1259;72895;-85
2023/03/17 14:38:21;;;;;;;6.20;3.50;;;;;;;5.44;100.00;101370.73;106331;1255;59756;-86
2023/03/17 14:41:13;;;;;;;7.30;4.20;;;;;;;5.34;100.00;101376.08;106029;1259;60503;-87
2023/03/17 14:44:07;;;;;;;8.30;4.20;;;;;;;5.26;100.00;101378.03;106162;1254;72865;-86
2023/03/17 14:47:01;;;;;;;6.10;3.80;;;;;;;5.32;100.00;101381.78;106269;1254;67565;-85
2023/03/17 14:49:54;;;;;;;10.60;5.20;;;;;;;5.20;100.00;101382.16;106321;1254;73534;-88
2023/03/17 14:52:44;;;;;;;7.80;4.40;;;;;;;5.13;100.00;101382.97;106300;1257;60682;-86
2023/03/17 14:55:40;;;;;;;7.60;3.80;;;;;;;5.02;100.00;101385.85;106440;1253;60908;-87
2023/03/17 14:58:40;;;;;;;8.80;4.40;;;;;;;5.10;100.00;101392.74;106171;1256;74242;-88
2023/03/17 15:01:37;;;;;;;12.10;5.10;;;;;;;5.11;100.00;101392.48;106365;1254;69745;-87
2023/03/17 15:04:28;;;;;;;11.60;5.30;;;;;;;5.19;100.00;101396.44;106335;1254;74172;-86
2023/03/17 15:07:40;;;;;;;8.40;5.30;;;;;;;5.21;100.00;101400.51;106136;1254;61337;-86
2023/03/17 15:10:40;;;;;;;14.90;6.50;;;;;;;5.03;100.00;101407.64;106398;1256;59820;-87
2023/03/17 15:13:32;;;;;;;10.30;4.80;;;;;;;5.10;100.00;101408.14;106470;1259;73110;-88
2023/03/17 15:16:29;;;;;;;9.30;4.70;;;;;;;5.15;100.00;101407.05;106319;1254;69001;-87
2023/03/17 15:19:25;;;;;;;8.70;5.40;;;;;;;5.15;100.00;101408.13;106350;1253;71364;-87
2023/03/17 15:22:22;;;;;;;13.50;6.30;;;;;;;5.14;100.00;101406.69;106435;1256;61069;-88
2023/03/17 15:25:30;;;;;;;17.40;6.30;;;;;;;5.13;100.00;101413.43;106372;1256;59599;-87
2023/03/17 15:28:19;;;;;;;10.20;5.10;;;;;;;4.92;100.00;101412.71;106411;1256;72302;-88
2023/03/17 15:31:12;;;;;;;11.30;6.00;;;;;;;4.93;100.00;101419.41;106331;1253;67681;-87
2023/03/17 15:34:01;;;;;;;12.40;6.40;;;;;;;5.00;100.00;101419.05;106546;1253;72889;-87
2023/03/17 15:36:52;;;;;;;12.70;6.20;;;;;;;4.95;100.00;101420.08;106538;1253;59690;-87
2023/03/17 15:39:43;;;;;;;11.30;6.50;;;;;;;4.93;100.00;101425.48;106712;1252;61972;-87
2023/03/17 15:42:37;;;;;;;10.10;5.60;;;;;;;4.90;100.00;101428.85;106483;1256;74188;-88
2023/03/17 15:45:26;;;;;;;13.20;6.30;;;;;;;4.89;100.00;101426.98;106400;1253;68195;-87
2023/03/17 15:48:22;;;;;;;11.90;5.10;;;;;;;4.90;100.00;101428.15;106178;1254;72168;-89
2023/03/17 15:51:13;;;;;;;10.70;5.10;;;;;;;4.90;100.00;101431.77;106367;1251;60267;-88
2023/03/17 15:54:04;;;;;;;14.00;6.80;;;;;;;4.90;100.00;101435.19;106451;1252;59516;-88
2023/03/17 15:56:54;;;;;;;12.60;6.10;;;;;;;4.92;100.00;101440.09;106302;1253;73752;-88
2023/03/17 15:59:43;;;;;;;12.70;5.90;;;;;;;4.97;100.00;101443.02;106334;1253;68740;-87
2023/03/17 16:02:37;;;;;;;21.20;8.80;;;;;;;4.93;100.00;101448.62;106682;1253;72925;-87
2023/03/17 16:05:28;;;;;;;12.80;6.80;;;;;;;4.95;100.00;101449.83;106843;1252;59692;-87
2023/03/17 16:08:21;;;;;;;12.90;6.10;;;;;;;4.97;100.00;101454.77;106828;1256;59607;-87
2023/03/17 16:11:29;;;;;;;16.20;7.10;;;;;;;5.01;100.00;101453.54;106508;1253;73747;-88
2023/03/17 16:14:20;;;;;;;13.80;6.70;;;;;;;5.08;100.00;101461.16;107705;1253;69676;-87
2023/03/17 16:17:27;;;;;;;14.10;7.10;;;;;;;5.08;100.00;101461.83;106290;1253;73406;-87
2023/03/17 16:20:25;;;;;;;14.00;7.10;;;;;;;5.08;100.00;101464.63;106205;1253;59671;-87
2023/03/17 16:23:18;;;;;;;13.30;7.00;;;;;;;5.11;100.00;101470.56;106446;1253;60681;-87
2023/03/17 16:26:07;;;;;;;14.20;7.70;;;;;;;5.07;100.00;101469.05;106479;1253;74115;-87
2023/03/17 16:29:13;;;;;;;13.40;6.60;;;;;;;5.10;100.00;101468.19;106335;1257;68641;-86
2023/03/17 16:32:04;;;;;;;13.50;6.30;;;;;;;5.10;100.00;101469.02;106352;1253;72749;-86
2023/03/17 16:34:54;;;;;;;16.70;8.20;;;;;;;5.02;100.00;101468.86;106307;1253;62019;-86
2023/03/17 16:37:44;;;;;;;14.70;7.00;;;;;;;4.91;100.00;101472.81;106506;1254;61158;-86
2023/03/17 16:40:35;;;;;;;17.10;8.10;;;;;;;4.94;100.00;101476.55;106566;1254;72986;-86
2023/03/17 16:43:30;;;;;;;19.00;7.30;;;;;;;4.96;100.00;101474.73;106472;1252;69506;-87
2023/03/17 16:46:20;;;;;;;17.80;8.20;;;;;;;4.93;100.00;101477.34;106345;1252;72394;-85
2023/03/17 16:49:14;;;;;;;20.50;10.20;;;;;;;4.95;100.00;101479.73;106386;1255;60583;-87
2023/03/17 16:52:04;;;;;;;25.20;11.20;;;;;;;4.98;100.00;101483.18;106372;1252;60397;-87
2023/03/17 16:54:53;;;;;;;25.10;12.60;;;;;;;5.00;100.00;101485.81;106354;1253;73788;-86
2023/03/17 16:57:47;;;;;;;15.60;8.10;;;;;;;5.03;100.00;101490.23;106531;1252;68831;-86
2023/03/17 17:00:37;;;;;;;18.50;9.90;;;;;;;4.93;100.00;101494.54;106523;1253;72841;-86
2023/03/17 17:03:27;;;;;;;12.40;6.90;;;;;;;4.93;100.00;101498.16;106525;1253;62161;-86
2023/03/17 17:06:18;;;;;;;22.40;9.20;;;;;;;4.94;100.00;101501.62;106477;1253;60988;-87
2023/03/17 17:09:07;;;;;;;19.40;9.60;;;;;;;4.91;100.00;101505.84;106387;1255;71574;-85
2023/03/17 17:11:58;;;;;;;19.10;8.30;;;;;;;4.96;100.00;101512.58;107098;1252;67634;-86
2023/03/17 17:14:48;;;;;;;19.10;8.30;;;;;;;5.01;100.00;101514.64;106670;1256;73798;-86
2023/03/17 17:17:40;;;;;;;21.50;9.30;;;;;;;4.95;100.00;101519.38;106484;1253;62506;-88
2023/03/17 17:20:37;;;;;;;17.90;7.70;;;;;;;4.94;100.00;101520.63;106426;1251;61093;-87
2023/03/17 17:23:26;;;;;;;18.20;8.40;;;;;;;4.90;100.00;101524.39;106773;1253;74576;-87
2023/03/17 17:26:20;;;;;;;17.40;7.60;;;;;;;4.94;100.00;101525.30;106595;1255;69176;-86
2023/03/17 17:29:09;;;;;;;20.40;8.60;;;;;;;4.90;100.00;101528.15;106519;1252;71747;-86
2023/03/17 17:31:58;;;;;;;19.80;8.90;;;;;;;4.93;100.00;101534.10;106495;1253;60438;-86
2023/03/17 17:34:48;;;;;;;19.20;9.90;;;;;;;4.92;100.00;101537.27;106509;1252;60105;-86
2023/03/17 17:37:38;;;;;;;16.80;9.60;;;;;;;4.97;100.00;101535.36;106532;1254;75646;-88
2023/03/17 17:40:27;;;;;;;22.70;10.40;;;;;;;4.92;100.00;101537.73;106592;1252;69035;-86
2023/03/17 17:43:17;;;;;;;20.20;10.90;;;;;;;4.92;100.00;101535.89;106543;1253;71923;-86
2023/03/17 17:46:11;;;;;;;32.10;14.80;;;;;;;4.90;100.00;101535.73;106351;1253;60937;-86
2023/03/17 17:49:00;;;;;;;36.90;17.30;;;;;;;4.95;100.00;101538.50;106600;1252;60361;-85
2023/03/17 17:51:51;;;;;;;43.60;19.40;;;;;;;5.04;100.00;101534.45;106538;1253;74989;-86
2023/03/17 17:54:41;;;;;;;32.60;18.40;;;;;;;5.09;100.00;101535.94;106472;1252;70223;-85
2023/03/17 17:57:32;;;;;;;29.90;14.60;;;;;;;4.96;100.00;101534.04;106482;1252;72918;-85
2023/03/17 18:00:22;;;;;;;25.80;12.90;;;;;;;5.01;100.00;101537.67;106566;1253;60221;-85
2023/03/17 18:03:12;;;;;;;20.70;10.80;;;;;;;5.15;100.00;101541.94;106544;1253;60734;-85
2023/03/17 18:06:02;;;;;;;20.60;11.00;;;;;;;4.98;100.00;101543.49;106488;1253;74414;-85
2023/03/17 18:08:51;;;;;;;20.10;10.90;;;;;;;5.01;100.00;101545.77;106669;1254;67622;-86
2023/03/17 18:11:41;;;;;;;22.60;12.20;;;;;;;5.09;100.00;101544.73;106530;1254;73517;-85
2023/03/17 18:14:34;;;;;;;20.30;11.30;;;;;;;5.11;100.00;101542.50;106524;1254;61513;-86
2023/03/17 18:17:26;;;;;;;23.10;11.20;;;;;;;5.12;100.00;101547.75;106490;1257;60453;-86
2023/03/17 18:20:17;;;;;;;24.90;11.80;;;;;;;5.14;100.00;101554.21;106638;1252;72104;-86
2023/03/17 18:23:07;;;;;;;19.00;9.90;;;;;;;5.17;100.00;101557.45;106478;1254;69907;-86
2023/03/17 18:26:00;;;;;;;20.60;10.40;;;;;;;5.13;100.00;101556.38;106672;1253;71565;-86
2023/03/17 18:28:50;;;;;;;19.60;10.00;;;;;;;5.15;100.00;101558.62;106374;1257;61390;-85
2023/03/17 18:31:42;;;;;;;19.90;9.90;;;;;;;5.18;100.00;101561.56;106452;1253;60983;-87
2023/03/17 18:34:36;;;;;;;23.70;11.70;;;;;;;5.19;100.00;101558.93;106973;1253;74860;-86
2023/03/17 18:37:27;;;;;;;22.40;11.30;;;;;;;5.11;100.00;101559.55;106759;1253;68905;-86
2023/03/17 18:40:17;;;;;;;19.30;9.40;;;;;;;5.04;100.00;101556.50;106446;1254;71920;-88
2023/03/17 18:43:12;;;;;;;18.00;10.50;;;;;;;5.17;100.00;101562.27;106469;1254;63204;-86
2023/03/17 18:46:02;;;;;;;18.30;10.00;;;;;;;5.09;100.00;101560.30;106240;1256;60366;-86
2023/03/17 18:48:51;;;;;;;19.60;10.70;;;;;;;5.03;100.00;101559.05;106191;1253;74965;-85
2023/03/17 18:51:42;;;;;;;22.10;11.90;;;;;;;4.98;100.00;101560.83;106546;1256;69993;-86
2023/03/17 18:54:31;;;;;;;23.70;10.70;;;;;;;4.95;100.00;101562.88;106270;1256;73777;-87
2023/03/17 18:57:20;;;;;;;20.00;10.20;;;;;;;4.95;100.00;101563.58;106513;1254;60720;-86
2023/03/17 19:00:10;;;;;;;21.70;10.10;;;;;;;4.89;100.00;101563.15;106473;1252;61049;-86
2023/03/17 19:03:00;;;;;;;23.80;12.90;;;;;;;4.92;100.00;101566.02;106540;1255;73994;-86
2023/03/17 19:05:50;;;;;;;20.90;10.70;;;;;;;4.88;100.00;101566.13;106280;1254;68374;-86
2023/03/17 19:08:39;;;;;;;22.50;12.20;;;;;;;4.86;100.00;101566.83;106476;1253;72935;-86
2023/03/17 19:11:29;;;;;;;19.30;10.80;;;;;;;4.82;100.00;101574.59;106422;1256;62230;-85
2023/03/17 19:14:18;;;;;;;18.80;10.90;;;;;;;4.75;100.00;101576.33;106381;1256;60546;-86
2023/03/17 19:17:07;;;;;;;20.00;10.70;;;;;;;4.73;100.00;101575.00;106481;1254;74316;-88
2023/03/17 19:19:56;;;;;;;21.90;11.70;;;;;;;4.73;100.00;101574.59;106381;1254;70077;-85
2023/03/17 19:22:52;;;;;;;22.60;10.50;;;;;;;4.82;100.00;101578.06;106390;1254;73467;-87
2023/03/17 19:25:42;;;;;;;22.80;11.50;;;;;;;4.84;100.00;101577.64;106447;1253;61195;-88
2023/03/17 19:28:32;;;;;;;21.00;11.20;;;;;;;4.71;100.00;101576.02;106287;1256;60447;-88
2023/03/17 19:31:23;;;;;;;21.80;10.70;;;;;;;4.65;100.00;101576.40;106134;1253;75519;-86
2023/03/17 19:34:14;;;;;;;17.70;10.30;;;;;;;4.64;100.00;101572.82;106383;1253;68658;-86
2023/03/17 19:37:03;;;;;;;24.50;11.60;;;;;;;4.66;100.00;101575.19;106405;1253;73894;-86
2023/03/17 19:39:57;;;;;;;22.50;11.10;;;;;;;4.68;100.00;101578.35;106458;1255;61406;-87
2023/03/17 19:42:46;;;;;;;23.20;11.50;;;;;;;4.62;100.00;101576.82;106394;1254;59967;-86
2023/03/17 19:45:35;;;;;;;22.60;11.60;;;;;;;4.53;100.00;101571.17;106552;1255;75108;-87
2023/03/17 19:48:26;;;;;;;27.30;13.70;;;;;;;4.53;100.00;101569.48;106609;1253;69050;-86
2023/03/17 19:51:15;;;;;;;23.30;11.90;;;;;;;4.55;100.00;101567.72;106499;1253;73379;-86
2023/03/17 19:54:10;;;;;;;23.50;11.50;;;;;;;4.51;100.00;101567.73;106599;1253;61861;-85
2023/03/17 19:57:00;;;;;;;25.30;12.60;;;;;;;4.45;100.00;101565.91;106523;1255;60463;-86
2023/03/17 19:59:50;;;;;;;23.60;12.20;;;;;;;4.45;100.00;101567.11;106456;1255;75227;-86
2023/03/17 20:02:40;;;;;;;23.30;11.60;;;;;;;4.48;100.00;101569.36;106439;1255;69073;-87
2023/03/17 20:05:33;;;;;;;;;;;;;;;4.51;100.00;101568.77;106583;1253;73472;-86
2023/03/17 20:08:23;;;;;;;23.70;13.00;;;;;;;4.49;100.00;101571.27;106511;1252;61385;-85
2023/03/17 20:11:12;;;;;;;22.00;12.20;;;;;;;4.56;100.00;101572.46;106511;1252;61030;-86
2023/03/17 20:14:02;;;;;;;22.90;10.60;;;;;;;4.66;100.00;101568.77;106582;1255;74099;-86
2023/03/17 20:16:52;;;;;;;23.80;12.00;;;;;;;4.63;100.00;101566.02;106545;1254;67548;-86
2023/03/17 20:19:42;;;;;;;21.70;11.00;;;;;;;4.69;100.00;101569.45;106445;1257;73254;-86
2023/03/17 20:22:32;;;;;;;23.00;12.00;;;;;;;4.72;100.00;101574.17;106551;1255;61640;-87
2023/03/17 20:25:21;;;;;;;23.00;12.20;;;;;;;4.69;100.00;101570.27;106652;1253;60489;-86
2023/03/17 20:28:11;;;;;;;22.00;11.00;;;;;;;4.73;100.00;101573.33;106689;1253;73014;-86
2023/03/17 20:31:01;;;;;;;20.60;11.10;;;;;;;4.78;100.00;101578.91;106494;1255;69823;-88
2023/03/17 20:33:52;;;;;;;20.90;10.30;;;;;;;4.77;100.00;101578.61;106505;1255;73189;-86
2023/03/17 20:36:42;;;;;;;20.30;11.10;;;;;;;4.66;100.00;101579.02;106604;1253;60580;-87
2023/03/17 20:39:32;;;;;;;24.50;12.30;;;;;;;4.68;100.00;101580.55;106495;1253;60743;-85
2023/03/17 20:42:23;;;;;;;22.30;11.60;;;;;;;4.61;100.00;101578.33;106573;1253;75201;-86
2023/03/17 20:45:13;;;;;;;19.30;10.30;;;;;;;4.63;100.00;101577.83;106577;1253;68759;-86
2023/03/17 20:48:03;;;;;;;23.10;11.00;;;;;;;4.54;100.00;101577.63;106556;1255;70634;-85
2023/03/17 20:50:52;;;;;;;23.00;11.60;;;;;;;4.61;100.00;101575.78;106432;1252;60459;-86
2023/03/17 20:53:43;;;;;;;22.90;12.40;;;;;;;4.63;100.00;101577.77;106693;1253;61132;-86
2023/03/17 20:56:32;;;;;;;23.00;12.00;;;;;;;4.61;100.00;101579.70;106531;1253;74481;-87
2023/03/17 20:59:23;;;;;;;24.50;11.80;;;;;;;4.60;100.00;101582.20;106435;1253;68656;-86
2023/03/17 21:02:14;;;;;;;19.20;10.00;;;;;;;4.65;100.00;101582.32;106442;1253;73072;-87
2023/03/17 21:05:05;;;;;;;22.90;11.20;;;;;;;4.69;100.00;101585.30;106322;1253;61243;-85
2023/03/17 21:07:56;;;;;;;23.60;11.60;;;;;;;4.70;100.00;101583.56;106526;1253;60540;-85
2023/03/17 21:10:45;;;;;;;22.90;12.10;;;;;;;4.62;100.00;101588.77;106585;1252;72779;-84
2023/03/17 21:13:37;;;;;;;15.00;9.20;;;;;;;4.53;100.00;101592.38;106537;1253;67948;-84
2023/03/17 21:16:27;;;;;;;21.30;11.00;;;;;;;4.53;100.00;101592.92;106661;1253;73624;-85
2023/03/17 21:19:18;;;;;;;17.00;9.20;;;;;;;4.56;100.00;101592.34;106622;1255;60931;-86
2023/03/17 21:22:07;;;;;;;20.60;10.90;;;;;;;4.59;100.00;101592.45;106542;1252;60853;-87
2023/03/17 21:24:56;;;;;;;21.70;10.50;;;;;;;4.54;100.00;101599.66;106785;1253;73740;-84
2023/03/17 21:27:45;;;;;;;17.30;9.10;;;;;;;4.55;100.00;101600.41;106546;1255;70661;-85
2023/03/17 21:30:35;;;;;;;24.20;11.60;;;;;;;4.63;100.00;101596.98;106495;1253;71841;-87
2023/03/17 21:33:27;;;;;;;16.20;8.50;;;;;;;4.59;100.00;101592.94;106286;1255;61102;-85
2023/03/17 21:36:16;;;;;;;18.00;9.20;;;;;;;4.53;100.00;101595.25;106258;1253;60864;-85
2023/03/17 21:39:08;;;;;;;18.30;9.50;;;;;;;4.56;100.00;101594.29;106287;1256;74313;-85
2023/03/17 21:41:57;;;;;;;20.00;10.30;;;;;;;4.59;100.00;101595.48;106432;1255;69706;-87
2023/03/17 21:44:47;;;;;;;20.30;10.00;;;;;;;4.60;100.00;101596.78;106444;1256;73876;-87
2023/03/17 21:47:36;;;;;;;17.90;9.60;;;;;;;4.59;100.00;101597.66;106355;1253;61547;-86
2023/03/17 21:50:32;;;;;;;17.70;9.30;;;;;;;4.55;100.00;101597.58;106354;1253;61399;-86
2023/03/17 21:53:22;;;;;;;19.30;10.60;;;;;;;4.45;100.00;101596.77;106173;1253;74230;-86
2023/03/17 21:56:12;;;;;;;22.00;10.60;;;;;;;4.44;100.00;101587.86;106356;1256;68775;-85
2023/03/17 21:59:01;;;;;;;20.00;9.70;;;;;;;4.50;100.00;101586.30;106478;1253;72667;-85
2023/03/17 22:01:52;;;;;;;18.80;10.00;;;;;;;4.53;100.00;101586.38;106483;1253;61453;-86
2023/03/17 22:04:42;;;;;;;16.10;8.80;;;;;;;4.57;100.00;101585.16;106379;1253;60568;-86
2023/03/17 22:07:31;;;;;;;19.50;10.00;;;;;;;4.54;100.00;101590.08;106371;1253;75050;-85
2023/03/17 22:10:21;;;;;;;18.90;8.90;;;;;;;4.52;100.00;101590.71;106533;1253;69998;-86
2023/03/17 22:13:11;;;;;;;21.40;10.50;;;;;;;4.53;100.00;101593.84;106318;1253;71643;-86
2023/03/17 22:16:03;;;;;;;14.60;7.30;;;;;;;4.55;100.00;101597.87;106235;1253;60659;-86
2023/03/17 22:18:53;;;;;;;20.70;9.80;;;;;;;4.56;100.00;101595.95;106108;1253;61387;-87
2023/03/17 22:21:42;;;;;;;18.30;8.80;;;;;;;4.50;100.00;101595.96;106211;1253;74555;-85
2023/03/17 22:24:34;;;;;;;16.50;9.70;;;;;;;4.47;100.00;101602.34;106398;1253;70063;-88
2023/03/17 22:27:23;;;;;;;16.00;8.40;;;;;;;4.48;100.00;101605.88;106292;1253;73218;-85
2023/03/17 22:30:13;;;;;;;17.00;7.70;;;;;;;4.51;100.00;101604.59;106124;1253;60634;-85
2023/03/17 22:33:02;;;;;;;16.80;8.80;;;;;;;4.51;100.00;101611.27;106292;1255;61674;-87
2023/03/17 22:35:52;;;;;;;16.40;8.60;;;;;;;4.46;100.00;101611.71;106196;1253;74414;-87
2023/03/17 22:38:41;;;;;;;16.10;8.30;;;;;;;4.44;100.00;101609.55;106314;1256;69987;-87
2023/03/17 22:41:30;;;;;;;13.80;7.40;;;;;;;4.43;100.00;101608.13;106289;1255;73892;-86
2023/03/17 22:44:20;;;;;;;15.70;8.20;;;;;;;4.40;100.00;101608.27;106113;1253;61149;-86
2023/03/17 22:47:09;;;;;;;15.70;8.10;;;;;;;4.40;100.00;101611.64;106197;1253;60754;-86
2023/03/17 22:49:58;;;;;;;17.20;8.60;;;;;;;4.41;100.00;101610.10;106104;1255;74414;-85
2023/03/17 22:52:48;;;;;;;18.00;9.30;;;;;;;4.40;100.00;101609.30;106325;1253;68199;-85
2023/03/17 22:55:37;;;;;;;16.60;8.30;;;;;;;4.42;100.00;101607.10;106111;1256;75220;-86
2023/03/17 22:58:27;;;;;;;15.60;7.20;;;;;;;4.45;100.00;101608.25;106150;1253;62327;-85
2023/03/17 23:01:16;;;;;;;16.20;9.20;;;;;;;4.50;100.00;101601.91;106168;1253;61063;-86
2023/03/17 23:04:06;;;;;;;18.10;9.40;;;;;;;4.39;100.00;101602.98;106124;1253;74109;-85
2023/03/17 23:06:57;;;;;;;17.20;9.60;;;;;;;4.37;100.00;101599.62;106208;1256;68623;-86
2023/03/17 23:09:47;;;;;;;19.70;9.90;;;;;;;4.37;100.00;101602.95;106305;1253;73829;-86
2023/03/17 23:12:39;;;;;;;16.70;8.40;;;;;;;4.41;100.00;101603.72;106268;1253;60941;-85
2023/03/17 23:15:28;;;;;;;15.60;7.80;;;;;;;4.44;100.00;101598.43;106125;1252;61542;-86
2023/03/17 23:18:23;;;;;;;16.30;8.00;;;;;;;4.42;100.00;101603.80;106308;1255;74821;-86
2023/03/17 23:21:33;;;;;;;17.40;9.20;;;;;;;4.37;100.00;101603.23;106100;1256;67533;-86
2023/03/17 23:24:22;;;;;;;17.00;8.80;;;;;;;4.37;100.00;101603.55;106181;1255;72898;-86
2023/03/17 23:27:12;;;;;;;19.30;9.50;;;;;;;4.41;100.00;101601.64;106071;1255;61120;-86
2023/03/17 23:30:03;;;;;;;18.00;9.20;;;;;;;4.44;100.00;101599.18;106119;1253;60557;-86
2023/03/17 23:32:55;;;;;;;17.90;9.20;;;;;;;4.48;100.00;101599.38;106144;1255;73918;-87
2023/03/17 23:35:45;;;;;;;19.50;10.10;;;;;;;4.56;100.00;101595.38;106183;1256;68706;-87
2023/03/17 23:38:37;;;;;;;;;;;;;;;4.45;100.00;101593.98;106189;1254;73769;-86
2023/03/17 23:41:26;;;;;;;20.30;9.60;;;;;;;4.34;100.00;101591.49;106247;1255;60537;-87
2023/03/17 23:44:20;;;;;;;17.00;9.20;;;;;;;4.29;100.00;101593.95;106135;1253;61305;-85
2023/03/17 23:47:10;;;;;;;20.30;10.10;;;;;;;4.26;100.00;101588.70;106445;1254;75136;-85
2023/03/17 23:50:04;;;;;;;18.70;9.50;;;;;;;4.20;100.00;101586.16;105528;1254;1079394;-87
2023/03/17 23:52:53;;;;;;;21.40;9.60;;;;;;;4.23;100.00;101590.34;106247;1256;73843;-87
2023/03/17 23:55:42;;;;;;;19.20;10.30;;;;;;;4.28;100.00;101589.50;106242;1257;60577;-85
2023/03/17 23:58:32;;;;;;;21.30;10.30;;;;;;;4.31;100.00;101592.66;106150;1258;60350;-87
